Latest Weather Observations for Coen Airport

IDQ60801

Issued at 10:31 pm EST Saturday 29 August 2015 (issued every 30 minutes, with the page automatically refreshed every 10 minutes)

About weather observations | Map of weather stations | Latest weather observations for QLD | Other Formats
Station Details ID: 027073 Name: COEN AIRPORT Lat: -13.76 Lon: 143.12 Height: 159.3 m
Data from the previous 72 hours. | See also: Recent months at Coen Airport
Date/Time
EST
Temp
°C
App
Temp
°C
Dew
Point
Rel
Hum
%
Delta-T
°C
Wind Press
QNH
hPa
Press
MSL
hPa
Rain
since 9 am
mm
Dir
 
Spd
km/h
Gust
km/h
Spd
kts
Gust
kts
29/10:30pm 21.5 21.8 17.1 76 2.7 NE 11 13 6 7 1016.4 - 0.0
29/10:00pm 21.8 22.6 17.4 76 2.7 NE 9 17 5 9 1016.4 - 0.0
29/09:30pm 21.7 22.9 17.3 76 2.7 NE 7 13 4 7 1016.6 - 0.0
29/09:00pm 21.6 22.7 17.2 76 2.7 NNE 7 11 4 6 1016.7 1016.1 0.0
29/08:30pm 21.9 23.8 16.6 72 3.2 NNE 2 9 1 5 1016.6 - 0.0
29/08:00pm 22.6 22.9 17.1 71 3.4 ENE 11 19 6 10 1016.4 - 0.0
29/07:30pm 22.7 23.8 16.7 69 3.7 ENE 6 11 3 6 1016.1 - 0.0
29/07:00pm 23.4 22.7 16.4 64 4.3 ENE 15 22 8 12 1015.6 - 0.0
29/06:30pm 23.9 23.1 16.2 62 4.7 ENE 15 24 8 13 1015.2 - 0.0
29/06:00pm 25.0 23.9 16.4 59 5.3 NE 17 28 9 15 1014.8 1014.1 0.0
29/05:30pm 25.9 24.2 16.2 55 6.0 NE 20 30 11 16 1014.5 - 0.0
29/05:00pm 27.0 25.2 16.0 51 6.8 NE 20 28 11 15 1014.3 - 0.0
29/04:30pm 27.9 26.4 15.2 46 7.8 ENE 17 28 9 15 1014.3 - 0.0
29/04:00pm 28.5 26.3 14.3 41 8.6 ENE 19 28 10 15 1014.2 - 0.0
29/03:30pm 28.4 25.8 13.9 41 8.7 ENE 20 35 11 19 1014.3 - 0.0
29/03:00pm 29.3 27.7 15.1 42 8.7 ENE 17 30 9 16 1014.6 1013.9 0.0
29/02:30pm 28.7 26.5 14.9 43 8.4 ENE 20 32 11 17 1015.0 - 0.0
29/02:00pm 30.1 27.5 15.0 40 9.3 ENE 22 32 12 17 1015.4 - 0.0
29/01:30pm 30.2 28.1 15.1 40 9.3 ENE 20 32 11 17 1015.8 - 0.0
29/01:00pm 28.8 26.5 14.2 40 8.8 ENE 19 32 10 17 1016.2 - 0.0
29/12:30pm 29.6 27.6 15.0 41 9.0 ENE 19 28 10 15 1016.6 - 0.0
29/12:00pm 28.7 26.9 15.6 45 8.1 ENE 19 30 10 16 1017.1 1016.5 0.0
29/11:30am 28.3 26.2 15.2 44 8.0 NE 20 28 11 15 1017.7 - 0.0
29/11:00am 29.1 27.3 16.0 45 8.2 ESE 20 28 11 15 1018.2 - 0.0
29/10:30am 27.9 26.3 16.5 50 7.1 ENE 20 35 11 19 1018.7 - 0.0
29/10:00am 26.1 24.3 16.1 54 6.2 E 20 32 11 17 1018.7 - 0.0
29/09:30am 27.3 26.4 17.8 56 6.0 E 19 30 10 16 1018.5 - 0.0
29/09:00am 26.4 27.1 18.0 60 5.3 NE 11 20 6 11 1018.3 1017.5 0.0
29/08:30am 23.2 25.0 17.4 70 3.6 SW 4 9 2 5 1018.1 - 0.0
29/08:00am 20.4 22.0 17.8 85 1.6 SW 6 9 3 5 1017.9 - 0.0
29/07:30am 17.9 20.1 16.6 92 0.8 CALM 0 0 0 0 1017.7 - 0.0
29/07:00am 16.0 17.4 14.5 91 0.9 CALM 0 0 0 0 1017.2 - 0.0
29/06:30am 16.2 17.8 14.9 92 0.8 CALM 0 0 0 0 1016.8 - 0.0
29/06:00am 16.0 17.3 14.0 88 1.1 CALM 0 0 0 0 1016.4 1015.7 0.0
29/05:30am 17.2 18.2 15.4 89 1.1 S 4 9 2 5 1016.1 - 0.0
29/05:00am 17.3 19.0 15.3 88 1.2 CALM 0 6 0 3 1015.8 - 0.0
29/04:30am 17.9 18.3 15.2 84 1.6 W 7 11 4 6 1015.7 - 0.0
29/04:00am 20.2 21.1 16.2 78 2.4 SE 6 11 3 6 1015.7 - 0.0
29/03:30am 19.3 21.1 15.4 78 2.3 CALM 0 0 0 0 1015.7 - 0.0
29/03:00am 20.3 21.2 16.1 77 2.5 E 6 9 3 5 1015.8 1015.1 0.0
29/02:30am 19.6 20.4 16.3 81 2.0 ESE 7 13 4 7 1015.8 - 0.0
29/02:00am 18.7 20.7 16.1 85 1.6 CALM 0 6 0 3 1016.1 - 0.0
29/01:30am 18.4 19.9 15.6 84 1.7 SW 2 6 1 3 1016.4 - 0.0
29/01:00am 18.6 20.5 15.7 83 1.7 CALM 0 7 0 4 1016.6 - 0.0
29/12:30am 19.7 20.4 17.1 85 1.6 E 9 13 5 7 1016.8 - 0.0
29/12:00am 18.0 19.8 15.4 85 1.5 CALM 0 0 0 0 1017.1 1016.5 0.0
 
Date/Time
EST
Temp
°C
App
Temp
°C
Dew
Point
Rel
Hum
%
Delta-T
°C
Wind Press
QNH
hPa
Press
MSL
hPa
Rain
since 9 am
mm
Dir
 
Spd
km/h
Gust
km/h
Spd
kts
Gust
kts
28/11:30pm 19.5 22.1 17.6 89 1.2 CALM 0 0 0 0 1017.3 - 0.0
28/11:00pm 18.4 20.2 15.6 84 1.7 CALM 0 0 0 0 1017.6 - 0.0
28/10:30pm 19.3 20.4 16.7 85 1.6 NE 6 7 3 4 1017.7 - 0.0
28/10:00pm 19.1 21.2 16.3 84 1.7 CALM 0 0 0 0 1017.8 - 0.0
28/09:30pm 19.8 22.0 16.4 81 2.1 CALM 0 0 0 0 1017.7 - 0.0
28/09:00pm 20.8 22.4 16.8 78 2.4 ESE 4 7 2 4 1017.6 1016.9 0.0
28/08:30pm 20.9 22.0 16.7 77 2.6 ENE 6 7 3 4 1017.2 - 0.0
28/08:00pm 22.1 24.2 17.2 74 3.0 E 2 6 1 3 1016.7 - 0.0
28/07:30pm 22.8 24.0 17.3 71 3.4 ENE 7 11 4 6 1016.4 - 0.0
28/07:00pm 23.3 24.4 17.1 68 3.8 ENE 7 11 4 6 1015.9 - 0.0
28/06:30pm 24.1 24.7 16.9 64 4.5 ENE 9 15 5 8 1015.6 - 0.0
28/06:00pm 25.1 24.4 16.3 58 5.4 ENE 15 24 8 13 1015.3 1014.6 0.0
28/05:30pm 25.9 24.7 16.2 55 6.0 ENE 17 26 9 14 1014.8 - 0.0
28/05:00pm 27.1 25.4 15.8 50 7.0 ENE 19 28 10 15 1014.5 - 0.0
28/04:30pm 27.1 24.9 14.8 47 7.5 ENE 20 32 11 17 1014.4 - 0.0
28/04:00pm 28.5 26.9 15.1 44 8.2 ENE 17 28 9 15 1014.3 - 0.0
28/03:30pm 28.7 27.3 15.6 45 8.1 E 17 28 9 15 1014.3 - 0.0
28/03:00pm 28.2 26.3 15.8 47 7.7 E 20 32 11 17 1014.4 1013.7 0.0
28/02:30pm 28.9 26.4 16.1 46 8.0 NNE 24 33 13 18 1014.6 - 0.0
28/02:00pm 28.5 25.6 15.1 44 8.2 ENE 24 33 13 18 1015.2 - 0.0
28/01:30pm 29.3 27.4 15.8 44 8.4 ENE 20 33 11 18 1015.4 - 0.0
28/01:00pm 29.3 27.7 16.1 44 8.2 ENE 19 35 10 19 1015.8 - 0.0
28/12:30pm 27.6 25.3 15.6 48 7.4 NE 22 30 12 16 1016.4 - 0.0
28/12:00pm 29.3 27.7 16.1 44 8.2 E 19 28 10 15 1016.8 1016.3 0.0
28/11:30am 29.2 28.1 16.4 46 8.0 E 17 26 9 14 1017.3 - 0.0
28/11:00am 28.7 27.6 16.3 47 7.7 E 17 30 9 16 1017.7 - 0.0
28/10:30am 27.5 25.9 16.1 49 7.1 E 19 33 10 18 1018.1 - 0.0
28/10:00am 26.9 25.4 16.2 52 6.6 SE 19 30 10 16 1018.2 - 0.0
28/09:30am 26.4 24.8 16.0 52 6.4 ESE 19 28 10 15 1018.1 - 0.0
28/09:00am 25.2 23.4 16.1 57 5.6 ESE 20 33 11 18 1017.8 1017.2 0.0
28/08:30am 24.8 23.2 16.5 60 5.1 ESE 20 30 11 16 1017.7 - 0.0
28/08:00am 21.9 23.1 16.8 73 3.1 S 6 9 3 5 1017.2 - 0.0
28/07:30am 19.5 22.1 17.6 89 1.2 CALM 0 0 0 0 1016.8 - 0.0
28/07:00am 15.5 16.8 14.0 91 0.9 CALM 0 0 0 0 1016.7 - 0.0
28/06:30am 15.4 16.3 13.9 91 0.9 W 2 7 1 4 1016.5 - 0.0
28/06:00am 15.9 16.6 14.4 91 0.9 S 4 9 2 5 1016.1 1015.4 0.0
28/05:30am 15.7 16.9 13.9 89 1.0 CALM 0 0 0 0 1016.0 - 0.0
28/05:00am 16.2 17.5 14.2 88 1.1 CALM 0 0 0 0 1015.8 - 0.0
28/04:30am 16.8 17.5 14.6 87 1.3 NW 4 11 2 6 1015.7 - 0.0
28/04:00am 17.7 18.2 15.1 85 1.5 SW 6 7 3 4 1015.5 - 0.0
28/03:30am 18.1 18.7 15.4 84 1.6 W 6 7 3 4 1015.5 - 0.0
28/03:00am 18.0 19.4 14.5 80 2.0 CALM 0 9 0 5 1015.7 1015.0 0.0
28/02:30am 19.6 20.3 15.7 78 2.3 S 6 9 3 5 1015.8 - 0.0
28/02:00am 19.9 20.8 15.1 74 2.8 W 4 9 2 5 1016.1 - 0.0
28/01:30am 21.9 22.8 16.0 69 3.6 SW 6 13 3 7 1016.3 - 0.0
28/01:00am 22.7 22.7 16.3 67 3.9 E 11 20 6 11 1016.3 - 0.0
28/12:30am 22.4 22.4 16.2 68 3.8 E 11 20 6 11 1016.7 - 0.0
28/12:00am 22.8 22.6 16.6 68 3.8 E 13 26 7 14 1016.9 1016.3 0.0
 
Date/Time
EST
Temp
°C
App
Temp
°C
Dew
Point
Rel
Hum
%
Delta-T
°C
Wind Press
QNH
hPa
Press
MSL
hPa
Rain
since 9 am
mm
Dir
 
Spd
km/h
Gust
km/h
Spd
kts
Gust
kts
27/11:30pm 22.7 22.8 16.5 68 3.8 E 11 20 6 11 1017.0 - 0.0
27/11:00pm 22.8 22.9 16.4 67 3.9 E 11 20 6 11 1017.1 - 0.0
27/10:30pm 22.8 22.9 16.4 67 3.9 E 11 15 6 8 1017.2 - 0.0
27/10:00pm 23.1 22.5 16.6 67 4.0 E 15 24 8 13 1017.3 - 0.0
27/09:30pm 23.1 22.6 16.9 68 3.8 E 15 26 8 14 1017.3 - 0.0
27/09:00pm 22.6 23.2 16.9 70 3.5 E 9 19 5 10 1017.2 1016.6 0.0
27/08:30pm 23.0 22.9 17.0 69 3.7 ENE 13 20 7 11 1017.1 - 0.0
27/08:00pm 23.2 22.6 16.7 67 4.0 ENE 15 30 8 16 1016.8 - 0.0
27/07:30pm 23.2 23.6 17.2 69 3.7 ENE 11 20 6 11 1016.5 - 0.0
27/07:00pm 23.4 23.5 16.4 64 4.3 E 11 17 6 9 1016.2 - 0.0
27/06:30pm 24.0 23.2 15.2 58 5.3 E 13 22 7 12 1015.7 - 0.0
27/06:00pm 25.1 22.9 14.8 52 6.2 E 20 33 11 18 1015.5 1014.8 0.0
27/05:30pm 26.2 24.3 14.3 48 7.1 E 17 26 9 14 1015.1 - 0.0
27/05:00pm 27.0 25.3 14.7 47 7.4 E 17 26 9 14 1014.9 - 0.0
27/04:30pm 27.3 25.3 15.0 47 7.5 E 19 30 10 16 1014.6 - 0.0
27/04:00pm 28.3 26.4 15.2 44 8.0 E 19 32 10 17 1014.5 - 0.0
27/03:30pm 27.0 24.9 14.7 47 7.4 E 19 32 10 17 1014.6 - 0.0
27/03:00pm 27.2 25.2 15.6 49 7.1 ENE 20 32 11 17 1014.6 1014.0 0.0
27/02:30pm 27.9 26.0 15.2 46 7.8 ENE 19 28 10 15 1014.8 - 0.0
27/02:00pm 29.2 27.9 16.7 46 7.9 E 19 30 10 16 1015.0 - 0.0
27/01:30pm 28.8 26.6 16.0 45 8.0 ENE 22 32 12 17 1015.2 - 0.0
27/01:00pm 28.1 26.3 15.4 46 7.8 E 19 32 10 17 1015.9 - 0.0
27/12:30pm 28.1 24.7 14.7 44 8.1 E 26 41 14 22 1016.4 - 0.0
27/12:00pm 28.8 26.1 15.7 45 8.1 E 24 37 13 20 1016.7 1016.1 0.0
27/11:30am 28.1 25.4 14.7 44 8.1 ENE 22 39 12 21 1017.1 - 0.0
27/11:00am 28.0 25.7 14.6 44 8.1 E 20 35 11 19 1017.7 - 0.0
27/10:30am 27.3 25.7 16.6 52 6.7 ENE 20 35 11 19 1018.0 - 0.0
27/10:00am 26.9 24.9 15.6 50 6.9 E 20 43 11 23 1018.1 - 0.0
27/09:30am 26.8 25.0 16.1 52 6.6 E 20 30 11 16 1018.0 - 0.0
27/09:00am 25.4 23.5 15.7 55 5.9 ESE 20 28 11 15 1017.8 1017.1 0.0
27/08:30am 24.6 22.8 15.5 57 5.5 ESE 19 39 10 21 1017.3 - 0.0
27/08:00am 23.5 23.1 16.3 64 4.4 ESE 13 20 7 11 1016.9 - 0.0
27/07:30am 22.1 22.2 16.6 71 3.4 ESE 11 17 6 9 1016.6 - 0.0
27/07:00am 19.0 20.5 15.7 81 2.0 WSW 2 9 1 5 1016.5 - 0.0
27/06:30am 19.7 19.9 15.8 78 2.3 SE 9 20 5 11 1016.3 - 0.0
27/06:00am 19.7 19.5 15.6 77 2.4 ESE 11 17 6 9 1016.0 1015.3 0.0
27/05:30am 20.0 20.6 15.8 77 2.5 E 7 9 4 5 1015.7 - 0.0
27/05:00am 20.4 20.7 16.0 76 2.7 E 9 15 5 8 1015.5 - 0.0
27/04:30am 20.2 20.1 16.0 77 2.5 ESE 11 20 6 11 1015.3 - 0.0
27/04:00am 20.4 20.3 16.0 76 2.7 ESE 11 15 6 8 1015.1 - 0.0
27/03:30am 20.6 20.9 16.0 75 2.8 E 9 17 5 9 1015.3 - 0.0
27/03:00am 20.9 20.5 16.1 74 2.9 ESE 13 20 7 11 1015.4 1014.7 0.0
27/02:30am 21.1 20.7 16.1 73 3.0 ESE 13 22 7 12 1015.6 - 0.0
27/02:00am 21.0 21.0 16.2 74 2.9 ESE 11 20 6 11 1016.1 - 0.0
27/01:30am 21.5 19.8 16.2 72 3.2 SE 20 28 11 15 1016.4 - 0.0
27/01:00am 21.7 19.2 16.2 71 3.3 SE 24 33 13 18 1016.7 - 0.0
27/12:30am 21.5 20.8 16.5 73 3.1 ESE 15 24 8 13 1017.0 - 0.0
27/12:00am 22.0 20.4 16.1 69 3.6 SE 19 26 10 14 1017.3 1016.7 0.0
 
Date/Time
EST
Temp
°C
App
Temp
°C
Dew
Point
Rel
Hum
%
Delta-T
°C
Wind Press
QNH
hPa
Press
MSL
hPa
Rain
since 9 am
mm
Dir
 
Spd
km/h
Gust
km/h
Spd
kts
Gust
kts
26/11:30pm 22.4 21.1 15.7 66 4.0 ESE 17 24 9 13 1017.6 - 0.0
26/11:00pm 22.5 21.7 16.1 67 3.9 E 15 22 8 12 1017.6 - 0.0

Other Formats:

Comma delimited format used in spreadsheet applications
http://www.bom.gov.au/fwo/IDQ60801/IDQ60801.94183.axf

JavaScript Object Notation format (JSON) in row-major order
http://www.bom.gov.au/fwo/IDQ60801/IDQ60801.94183.json